createdAt,value
2017-11-26T00:00:40.914Z,2.30
2017-11-26T00:03:09.275Z,2.30
2017-11-26T00:05:37.812Z,2.10
2017-11-26T00:08:06.942Z,2.00
2017-11-26T00:10:35.289Z,2.00
2017-11-26T00:13:04.209Z,2.00
2017-11-26T00:15:32.388Z,2.00
2017-11-26T00:18:00.546Z,2.00
2017-11-26T00:20:28.902Z,2.00
2017-11-26T00:22:58.013Z,2.00
2017-11-26T00:25:28.459Z,2.00
2017-11-26T00:27:57.028Z,2.00
2017-11-26T00:30:26.514Z,2.00
2017-11-26T00:32:55.639Z,1.90
2017-11-26T00:35:23.791Z,1.90
2017-11-26T00:37:52.150Z,1.90
2017-11-26T00:40:21.071Z,1.90
2017-11-26T00:42:49.414Z,1.80
2017-11-26T00:45:17.800Z,1.90
2017-11-26T00:47:46.910Z,1.90
2017-11-26T00:50:15.280Z,1.90
2017-11-26T00:52:44.396Z,1.90
2017-11-26T00:55:12.747Z,1.90
2017-11-26T00:57:41.877Z,2.00
2017-11-26T01:00:10.223Z,2.00
2017-11-26T01:02:39.342Z,2.00
2017-11-26T01:05:07.682Z,2.00
2017-11-26T01:07:36.042Z,2.00
2017-11-26T01:10:04.389Z,2.00
2017-11-26T01:12:32.739Z,2.00
2017-11-26T01:15:01.110Z,2.00
2017-11-26T01:17:29.462Z,2.00
2017-11-26T01:19:57.818Z,2.00
2017-11-26T01:22:31.553Z,1.90
2017-11-26T01:24:59.926Z,1.90
2017-11-26T01:27:28.463Z,1.90
2017-11-26T01:29:56.799Z,1.90
2017-11-26T01:32:25.937Z,1.90
2017-11-26T01:34:54.471Z,1.90
2017-11-26T01:37:23.640Z,2.00
2017-11-26T01:39:51.798Z,1.90
2017-11-26T01:42:20.163Z,2.00
2017-11-26T01:44:48.526Z,2.00
2017-11-26T01:47:16.686Z,2.00
2017-11-26T01:49:45.816Z,2.10
2017-11-26T01:52:14.161Z,2.00
2017-11-26T01:54:42.335Z,2.10
2017-11-26T01:57:10.687Z,2.10
2017-11-26T01:59:39.052Z,2.00
2017-11-26T02:02:07.261Z,2.00
2017-11-26T02:04:35.614Z,2.00
2017-11-26T02:07:03.643Z,2.00
2017-11-26T02:09:31.994Z,2.00
2017-11-26T02:12:00.388Z,2.00
2017-11-26T02:14:28.738Z,2.00
2017-11-26T02:16:57.707Z,2.00
2017-11-26T02:19:25.396Z,2.00
2017-11-26T02:21:53.409Z,2.00
2017-11-26T02:24:21.436Z,2.00
2017-11-26T02:26:50.545Z,2.00
2017-11-26T02:29:18.569Z,2.00
2017-11-26T02:31:58.222Z,2.00
2017-11-26T02:47:52.142Z,2.10
2017-11-26T02:50:19.826Z,2.10
2017-11-26T02:52:47.866Z,2.10
2017-11-26T02:55:15.554Z,2.10
2017-11-26T02:57:43.239Z,2.10
2017-11-26T03:00:12.031Z,2.00
2017-11-26T03:02:41.166Z,2.00
2017-11-26T03:05:09.754Z,2.00
2017-11-26T03:07:38.091Z,2.10
2017-11-26T03:10:06.867Z,2.10
2017-11-26T03:12:35.666Z,2.00
2017-11-26T03:15:04.445Z,1.90
2017-11-26T03:17:33.580Z,1.90
2017-11-26T03:20:01.939Z,1.90
2017-11-26T03:22:30.306Z,1.90
2017-11-26T03:24:59.442Z,1.80
2017-11-26T03:27:27.718Z,1.80
2017-11-26T03:29:55.552Z,1.80
2017-11-26T03:32:24.480Z,1.80
2017-11-26T03:34:52.836Z,1.80
2017-11-26T03:37:21.187Z,1.80
2017-11-26T03:39:50.159Z,1.70
2017-11-26T03:42:18.514Z,1.70
2017-11-26T03:44:46.522Z,1.60
2017-11-26T03:47:15.636Z,1.60
2017-11-26T03:49:43.991Z,1.60
2017-11-26T03:52:13.101Z,1.50
2017-11-26T03:54:41.568Z,1.50
2017-11-26T03:57:10.673Z,1.50
2017-11-26T03:59:39.791Z,1.50
2017-11-26T04:02:07.960Z,1.50
2017-11-26T04:04:36.306Z,1.50
2017-11-26T04:07:05.555Z,1.60
2017-11-26T05:09:19.147Z,1.80
2017-11-26T05:11:47.486Z,1.70
2017-11-26T05:14:15.855Z,1.80
2017-11-26T05:16:44.198Z,1.80
2017-11-26T05:19:12.569Z,1.80
2017-11-26T05:21:40.922Z,1.80
2017-11-26T05:24:10.257Z,1.80
2017-11-26T05:26:38.635Z,1.80
2017-11-26T05:29:06.980Z,1.80
2017-11-26T05:31:36.130Z,1.80
2017-11-26T05:34:04.469Z,1.80
2017-11-26T05:36:32.854Z,1.80
2017-11-26T05:39:01.218Z,1.80
2017-11-26T05:41:30.519Z,1.80
2017-11-26T05:43:58.875Z,1.80
2017-11-26T05:46:27.213Z,1.80
2017-11-26T05:48:55.560Z,1.70
2017-11-26T05:51:23.733Z,1.70
2017-11-26T05:53:52.077Z,1.70
2017-11-26T05:56:20.482Z,1.70
2017-11-26T05:58:48.838Z,1.70
2017-11-26T06:01:17.395Z,1.70
2017-11-26T06:03:45.755Z,1.80
2017-11-26T06:06:13.787Z,1.80
2017-11-26T06:08:42.919Z,1.90
2017-11-26T06:11:11.259Z,1.90
2017-11-26T06:46:00.231Z,1.80
2017-11-26T06:48:29.558Z,1.80
2017-11-26T06:50:57.909Z,1.80
2017-11-26T06:53:26.334Z,1.80
2017-11-26T06:55:54.788Z,1.80
2017-11-26T06:58:23.134Z,1.90
2017-11-26T07:00:52.291Z,2.00
2017-11-26T07:03:20.803Z,1.90
2017-11-26T07:05:49.616Z,2.00
2017-11-26T07:08:17.962Z,2.00
2017-11-26T07:10:45.639Z,2.00
2017-11-26T07:13:14.115Z,2.00
2017-11-26T07:15:43.225Z,2.10
2017-11-26T07:18:11.610Z,2.00
2017-11-26T07:20:39.622Z,2.00
2017-11-26T07:23:07.962Z,2.10
2017-11-26T07:25:36.313Z,2.10
2017-11-26T07:28:05.805Z,2.10
2017-11-26T07:30:34.223Z,2.20
2017-11-26T07:33:02.574Z,2.20
2017-11-26T07:35:31.890Z,2.20
2017-11-26T07:38:00.253Z,2.20
2017-11-26T07:40:29.035Z,2.30
2017-11-26T07:42:58.897Z,2.20
2017-11-26T07:45:26.581Z,2.20
2017-11-26T07:47:54.931Z,2.30
2017-11-26T07:50:23.284Z,2.30
2017-11-26T07:52:51.450Z,2.20
2017-11-26T07:55:20.585Z,2.30
2017-11-26T07:57:48.930Z,2.20
2017-11-26T08:00:17.093Z,2.20
2017-11-26T08:02:46.036Z,2.30
2017-11-26T08:05:14.516Z,2.30
2017-11-26T08:07:42.690Z,2.20
2017-11-26T08:10:11.049Z,2.30
2017-11-26T08:12:39.401Z,2.30
2017-11-26T08:15:08.575Z,2.40
2017-11-26T08:17:37.695Z,2.40
2017-11-26T08:20:07.326Z,2.40
2017-11-26T08:22:35.957Z,2.40
2017-11-26T08:25:05.070Z,2.50
2017-11-26T08:27:34.209Z,2.50
2017-11-26T08:30:02.758Z,2.50
2017-11-26T08:32:31.160Z,2.50
2017-11-26T08:34:59.510Z,2.50
2017-11-26T08:37:28.630Z,2.50
2017-11-26T08:39:56.810Z,2.50
2017-11-26T08:42:24.958Z,2.60
2017-11-26T08:44:53.146Z,2.60
2017-11-26T08:47:21.494Z,2.70
2017-11-26T08:49:50.479Z,2.70
2017-11-26T08:52:19.421Z,2.70
2017-11-26T08:54:47.594Z,2.70
2017-11-26T08:57:15.791Z,2.70
2017-11-26T08:59:43.951Z,2.70
2017-11-26T09:02:12.112Z,2.80
2017-11-26T09:04:40.279Z,2.80
2017-11-26T09:07:10.342Z,2.80
2017-11-26T09:09:38.526Z,2.80
2017-11-26T09:12:06.678Z,2.90
2017-11-26T09:14:34.858Z,2.90
2017-11-26T09:17:03.018Z,3.00
2017-11-26T09:19:31.182Z,3.10
2017-11-26T09:21:59.361Z,3.00
2017-11-26T09:24:27.883Z,3.00
2017-11-26T09:26:57.023Z,3.00
2017-11-26T09:29:25.409Z,3.00
2017-11-26T09:31:54.530Z,3.00
2017-11-26T09:34:22.902Z,3.00
2017-11-26T09:36:51.258Z,3.00
2017-11-26T09:39:20.770Z,3.00
2017-11-26T09:41:48.793Z,3.00
2017-11-26T09:44:16.814Z,2.90
2017-11-26T09:46:44.879Z,3.00
2017-11-26T09:49:13.670Z,3.10
2017-11-26T09:51:42.836Z,3.10
2017-11-26T09:54:10.875Z,3.10
2017-11-26T09:56:40.076Z,3.10
2017-11-26T09:59:09.194Z,3.10
2017-11-26T10:01:37.547Z,3.10
2017-11-26T10:04:06.686Z,3.20
2017-11-26T10:06:35.054Z,3.20
2017-11-26T10:09:02.921Z,3.10
2017-11-26T10:11:31.606Z,3.10
2017-11-26T10:13:59.992Z,3.10
2017-11-26T10:16:28.369Z,3.10
2017-11-26T10:18:56.731Z,3.10
2017-11-26T10:21:25.097Z,3.20
2017-11-26T10:23:53.443Z,3.10
2017-11-26T10:26:21.842Z,3.00
2017-11-26T10:28:50.993Z,3.10
2017-11-26T10:31:19.346Z,3.10
2017-11-26T10:33:47.703Z,3.10
2017-11-26T10:36:16.076Z,3.20
2017-11-26T10:38:44.462Z,3.10
2017-11-26T10:41:12.810Z,3.20
2017-11-26T10:43:40.494Z,3.30
2017-11-26T10:46:08.202Z,3.30
2017-11-26T10:48:35.887Z,3.40
2017-11-26T10:51:03.620Z,3.40
2017-11-26T10:53:31.673Z,3.30
2017-11-26T10:58:29.281Z,3.40
2017-11-26T11:00:56.973Z,3.40
2017-11-26T11:03:24.719Z,3.40
2017-11-26T11:05:52.740Z,3.50
2017-11-26T11:08:20.439Z,3.40
2017-11-26T11:10:48.458Z,3.50
2017-11-26T11:13:16.534Z,3.40
2017-11-26T11:15:44.548Z,3.40
2017-11-26T11:20:42.002Z,3.40
2017-11-26T11:23:10.351Z,3.40
2017-11-26T11:25:38.727Z,3.40
2017-11-26T11:28:07.552Z,3.50
2017-11-26T11:30:35.927Z,3.50
2017-11-26T11:33:04.282Z,3.60
2017-11-26T11:35:32.630Z,3.50
2017-11-26T11:38:01.190Z,3.60
2017-11-26T11:40:29.572Z,3.60
2017-11-26T11:42:58.121Z,3.60
2017-11-26T11:45:26.521Z,3.60
2017-11-26T11:47:54.908Z,3.60
2017-11-26T11:50:23.256Z,3.60
2017-11-26T11:52:51.283Z,3.60
2017-11-26T11:55:19.563Z,3.40
2017-11-26T11:57:48.155Z,3.40
2017-11-26T12:00:15.699Z,3.40
2017-11-26T12:02:44.820Z,3.40
2017-11-26T12:05:12.991Z,3.40
2017-11-26T12:07:41.164Z,3.40
2017-11-26T12:10:09.171Z,3.50
2017-11-26T12:12:37.241Z,3.50
2017-11-26T12:15:04.984Z,3.60
2017-11-26T12:17:33.217Z,3.50
2017-11-26T12:20:01.666Z,3.40
2017-11-26T12:22:29.725Z,3.40
2017-11-26T12:24:57.761Z,3.40
2017-11-26T12:27:25.302Z,3.50
2017-11-26T12:29:53.789Z,3.50
2017-11-26T12:32:22.096Z,3.60
2017-11-26T12:34:50.587Z,3.60
2017-11-26T12:37:18.274Z,3.70
2017-11-26T12:39:46.308Z,3.70
2017-11-26T12:42:14.054Z,3.70
2017-11-26T12:44:41.744Z,3.70
2017-11-26T12:47:09.451Z,3.70
2017-11-26T12:49:38.173Z,3.60
2017-11-26T12:52:06.275Z,3.60
2017-11-26T12:54:33.981Z,3.70
2017-11-26T12:57:02.366Z,3.80
2017-11-26T12:59:30.827Z,3.80
2017-11-26T13:01:59.230Z,3.90
2017-11-26T13:04:27.752Z,3.90
2017-11-26T13:06:56.897Z,3.90
2017-11-26T13:09:24.674Z,4.00
2017-11-26T13:11:52.490Z,4.00
2017-11-26T13:14:20.193Z,4.20
2017-11-26T13:16:48.677Z,4.30
2017-11-26T13:19:16.425Z,4.30
2017-11-26T13:21:44.937Z,4.40
2017-11-26T13:24:12.628Z,4.30
2017-11-26T13:26:40.352Z,4.30
2017-11-26T13:29:08.084Z,4.30
2017-11-26T13:31:36.580Z,4.10
2017-11-26T13:34:05.071Z,4.20
2017-11-26T13:36:32.763Z,4.20
2017-11-26T13:39:00.804Z,4.20
2017-11-26T13:41:29.510Z,4.20
2017-11-26T13:43:57.208Z,4.20
2017-11-26T13:46:24.909Z,4.20
2017-11-26T13:48:52.618Z,4.20
2017-11-26T13:51:20.843Z,4.10
2017-11-26T13:53:49.304Z,4.10
2017-11-26T13:56:17.008Z,4.10
2017-11-26T13:58:44.712Z,4.10
2017-11-26T14:01:12.601Z,4.10
2017-11-26T14:03:41.074Z,4.10
2017-11-26T14:06:08.773Z,4.10
2017-11-26T14:08:36.477Z,4.10
2017-11-26T14:11:04.170Z,4.10
2017-11-26T14:13:32.075Z,4.00
2017-11-26T14:15:59.765Z,4.10
2017-11-26T14:18:27.453Z,4.30
2017-11-26T14:20:55.499Z,4.30
2017-11-26T14:23:23.196Z,4.40
2017-11-26T14:25:51.871Z,4.30
2017-11-26T14:28:19.578Z,4.30
2017-11-26T14:30:47.279Z,4.30
2017-11-26T14:33:14.977Z,4.30
2017-11-26T14:35:42.698Z,4.20
2017-11-26T14:38:10.411Z,4.20
2017-11-26T14:40:38.302Z,4.10
2017-11-26T14:43:05.989Z,4.10
2017-11-26T14:45:34.000Z,4.10
2017-11-26T14:48:03.210Z,4.00
2017-11-26T14:50:30.893Z,4.10
2017-11-26T14:52:58.592Z,4.00
2017-11-26T14:55:26.319Z,4.00
2017-11-26T14:57:54.033Z,3.90
2017-11-26T15:00:22.486Z,4.00
2017-11-26T15:02:50.178Z,3.90
2017-11-26T15:05:18.458Z,3.90
2017-11-26T15:07:46.138Z,3.90
2017-11-26T15:10:13.830Z,3.90
2017-11-26T15:12:41.716Z,3.80
2017-11-26T15:15:09.555Z,3.80
2017-11-26T15:17:37.267Z,3.80
2017-11-26T15:20:05.715Z,4.00
2017-11-26T15:22:33.440Z,4.00
2017-11-26T15:25:01.128Z,4.00
2017-11-26T15:27:28.817Z,4.00
2017-11-26T15:29:56.553Z,4.00
2017-11-26T15:32:24.244Z,4.00
2017-11-26T15:34:52.088Z,4.00
2017-11-26T15:37:19.808Z,3.90
2017-11-26T15:39:47.623Z,3.90
2017-11-26T15:42:15.319Z,4.00
2017-11-26T15:44:43.598Z,3.90
2017-11-26T15:47:12.130Z,3.90
2017-11-26T15:49:39.865Z,3.90
2017-11-26T15:52:07.945Z,3.90
2017-11-26T15:54:35.872Z,3.90
2017-11-26T15:57:04.341Z,3.90
2017-11-26T15:59:32.235Z,3.90
2017-11-26T16:01:59.983Z,3.90
2017-11-26T16:04:27.565Z,3.90
2017-11-26T16:06:55.154Z,3.80
2017-11-26T16:09:22.855Z,3.80
2017-11-26T16:11:50.550Z,3.80
2017-11-26T16:14:18.292Z,3.70
2017-11-26T16:16:47.120Z,3.70
2017-11-26T16:19:14.833Z,3.70
2017-11-26T16:21:42.629Z,3.70
2017-11-26T16:24:10.323Z,3.60
2017-11-26T16:26:38.688Z,3.60
2017-11-26T16:29:06.734Z,3.60
2017-11-26T16:31:36.074Z,3.70
2017-11-26T16:34:03.796Z,3.60
2017-11-26T16:36:31.832Z,3.60
2017-11-26T16:39:00.060Z,3.60
2017-11-26T16:41:27.748Z,3.60
2017-11-26T16:43:55.459Z,3.60
2017-11-26T16:46:23.911Z,3.50
2017-11-26T16:48:51.439Z,3.50
2017-11-26T16:51:19.280Z,3.50
2017-11-26T16:53:47.311Z,3.60
2017-11-26T16:56:15.147Z,3.60
2017-11-26T16:58:43.862Z,3.60
2017-11-26T17:01:12.239Z,3.60
2017-11-26T17:03:40.707Z,3.60
2017-11-26T17:06:08.821Z,3.50
2017-11-26T17:08:36.572Z,3.50
2017-11-26T17:11:05.539Z,3.60
2017-11-26T17:13:33.263Z,3.60
2017-11-26T17:16:01.512Z,3.60
2017-11-26T17:18:32.203Z,3.60
2017-11-26T17:21:00.648Z,3.60
2017-11-26T17:23:28.678Z,3.60
2017-11-26T17:25:57.599Z,3.60
2017-11-26T17:28:25.798Z,3.60
2017-11-26T17:30:53.885Z,3.60
2017-11-26T17:33:21.685Z,3.50
2017-11-26T17:35:50.154Z,3.40
2017-11-26T17:38:17.860Z,3.40
2017-11-26T17:40:45.891Z,3.40
2017-11-26T17:43:15.097Z,3.30
2017-11-26T17:45:43.941Z,3.30
2017-11-26T17:48:12.974Z,3.30
2017-11-26T17:50:42.265Z,3.30
2017-11-26T17:53:11.146Z,3.30
2017-11-26T17:55:39.064Z,3.20
2017-11-26T17:58:06.979Z,3.20
2017-11-26T18:00:35.643Z,3.10
2017-11-26T18:03:03.727Z,3.00
2017-11-26T18:05:31.780Z,3.10
2017-11-26T18:08:00.178Z,3.10
2017-11-26T18:10:28.585Z,3.20
2017-11-26T18:12:57.729Z,3.30
2017-11-26T18:15:26.173Z,3.30
2017-11-26T18:17:55.327Z,3.40
2017-11-26T18:20:23.707Z,3.30
2017-11-26T18:22:52.104Z,3.40
2017-11-26T18:25:20.658Z,3.40
2017-11-26T18:27:49.064Z,3.40
2017-11-26T18:30:18.234Z,3.50
2017-11-26T18:32:46.616Z,3.40
2017-11-26T18:35:15.025Z,3.50
2017-11-26T18:37:44.175Z,3.50
2017-11-26T18:40:12.567Z,3.50
2017-11-26T18:42:40.949Z,3.50
2017-11-26T18:45:10.362Z,3.60
2017-11-26T18:47:38.786Z,3.60
2017-11-26T18:50:07.302Z,3.60
2017-11-26T18:52:35.711Z,3.60
2017-11-26T18:55:04.277Z,3.60
2017-11-26T18:57:32.751Z,3.70
2017-11-26T19:00:01.103Z,3.70
2017-11-26T19:02:29.516Z,3.70
2017-11-26T19:04:57.859Z,3.70
2017-11-26T19:07:26.268Z,3.70
2017-11-26T19:09:54.678Z,3.70
2017-11-26T19:12:23.219Z,3.70
2017-11-26T19:14:51.619Z,3.80
2017-11-26T19:17:20.097Z,3.80
2017-11-26T19:19:48.633Z,3.80
2017-11-26T19:22:16.994Z,3.80
2017-11-26T19:24:45.455Z,3.80
2017-11-26T19:27:14.712Z,3.80
2017-11-26T19:29:42.783Z,3.80
2017-11-26T19:32:11.150Z,3.80
2017-11-26T19:34:39.660Z,3.80
2017-11-26T19:37:08.516Z,3.80
2017-11-26T19:39:36.927Z,3.80
2017-11-26T19:42:05.422Z,3.80
2017-11-26T19:44:34.638Z,3.80
2017-11-26T19:47:03.122Z,3.80
2017-11-26T19:49:31.516Z,3.80
2017-11-26T19:52:00.688Z,3.90
2017-11-26T19:54:29.931Z,3.80
2017-11-26T19:56:58.121Z,3.80
2017-11-26T19:59:26.404Z,3.80
2017-11-26T20:01:54.567Z,3.80
2017-11-26T20:04:22.924Z,3.80
2017-11-26T20:06:51.666Z,3.90
2017-11-26T20:09:20.852Z,3.80
2017-11-26T20:11:49.922Z,3.80
2017-11-26T20:14:18.406Z,3.80
2017-11-26T20:16:46.790Z,3.90
2017-11-26T20:19:15.230Z,3.80
2017-11-26T20:21:43.609Z,3.60
2017-11-26T20:24:12.201Z,3.80
2017-11-26T20:26:40.622Z,3.90
2017-11-26T20:29:08.996Z,3.90
2017-11-26T20:31:39.409Z,3.80
2017-11-26T20:34:07.968Z,3.80
2017-11-26T20:36:36.572Z,3.80
2017-11-26T20:39:04.549Z,3.80
2017-11-26T20:41:33.118Z,3.80
2017-11-26T20:44:02.302Z,3.80
2017-11-26T20:46:30.848Z,3.80
2017-11-26T20:48:59.516Z,3.70
2017-11-26T20:51:28.800Z,3.70
2017-11-26T20:53:56.959Z,3.70
2017-11-26T20:56:25.349Z,3.70
2017-11-26T20:58:53.785Z,3.60
2017-11-26T21:01:22.259Z,3.50
2017-11-26T21:03:51.307Z,3.40
2017-11-26T21:06:19.850Z,3.40
2017-11-26T21:08:48.317Z,3.40
2017-11-26T21:11:16.811Z,3.40
2017-11-26T21:13:45.213Z,3.30
2017-11-26T21:16:13.627Z,3.30
2017-11-26T21:18:42.760Z,3.30
2017-11-26T21:21:11.780Z,3.30
2017-11-26T21:23:40.129Z,3.30
2017-11-26T21:26:09.289Z,3.30
2017-11-26T21:28:38.402Z,3.20
2017-11-26T21:31:06.786Z,3.10
2017-11-26T21:33:35.154Z,3.20
2017-11-26T21:36:04.139Z,3.10
2017-11-26T21:38:33.302Z,3.10
2017-11-26T21:41:01.677Z,3.10
2017-11-26T21:43:30.054Z,3.10
2017-11-26T21:45:58.408Z,3.00
2017-11-26T21:48:26.773Z,3.00
2017-11-26T21:50:55.214Z,2.90
2017-11-26T21:53:23.593Z,2.90
2017-11-26T21:55:52.804Z,2.90
2017-11-26T21:58:21.922Z,2.90
2017-11-26T22:00:50.303Z,2.90
2017-11-26T22:03:18.698Z,2.90
2017-11-26T22:05:47.053Z,2.90
2017-11-26T22:08:15.477Z,2.80
2017-11-26T22:10:43.941Z,2.80
2017-11-26T22:13:13.053Z,2.80
2017-11-26T22:15:41.425Z,2.80
2017-11-26T22:18:09.778Z,2.80
2017-11-26T22:20:38.212Z,2.90
2017-11-26T22:23:07.342Z,2.90
2017-11-26T22:25:35.736Z,2.80
2017-11-26T22:28:04.115Z,2.90
2017-11-26T22:30:31.799Z,2.90
2017-11-26T22:33:00.203Z,2.90
2017-11-26T22:35:29.611Z,3.00
2017-11-26T22:37:57.970Z,3.00
2017-11-26T22:40:26.020Z,3.00
2017-11-26T22:42:54.478Z,2.90
2017-11-26T22:45:22.865Z,2.90
2017-11-26T22:47:51.400Z,2.90
2017-11-26T22:50:20.525Z,3.00
2017-11-26T22:52:48.893Z,3.00
2017-11-26T22:55:17.246Z,2.90
2017-11-26T22:57:45.615Z,3.00
2017-11-26T23:00:15.502Z,3.00
2017-11-26T23:02:44.189Z,3.10
2017-11-26T23:05:12.554Z,3.10
2017-11-26T23:07:40.569Z,3.10
2017-11-26T23:10:09.160Z,3.10
2017-11-26T23:12:38.279Z,3.10
2017-11-26T23:15:06.632Z,3.10
2017-11-26T23:17:35.754Z,3.10
2017-11-26T23:20:03.771Z,3.10
2017-11-26T23:22:31.816Z,3.10
2017-11-26T23:25:00.170Z,3.20
2017-11-26T23:27:28.517Z,3.10
2017-11-26T23:29:56.950Z,3.20
2017-11-26T23:32:25.330Z,3.20
2017-11-26T23:34:53.721Z,3.20
2017-11-26T23:37:22.067Z,3.20
2017-11-26T23:39:50.414Z,3.20
2017-11-26T23:42:19.549Z,3.30
2017-11-26T23:44:48.029Z,3.20
2017-11-26T23:47:16.454Z,3.20
2017-11-26T23:49:44.798Z,3.20
2017-11-26T23:52:13.137Z,3.20
2017-11-26T23:54:42.269Z,3.20
2017-11-26T23:57:10.857Z,3.20
2017-11-26T23:59:39.211Z,3.20
